LFMK

Carcassonne Airport

Airport
ICAO code
LFMK
IATA Code
CCF
Summary
ICAO Region
EUR
ICAO Territory
Location

, Languedoc-Roussillon

Serving
Carcassonne
Elevation
433 ft
Coordinates
43° 12' 58" N , 2° 18' 23" E
Metar
Observation
LFMK 030300Z AUTO 00000KT 7000 NSC 02/01 Q1011 TEMPO 4000 BR BKN010
Station
Carcassonne
Date/Time
2022-12-03 03:00:00
Wind direction
Wind speed
00 kts
Lowest cloud amount
broken clouds
Temperature
2°C
Dew point
1°C
Humidity
93%
QNH
1011 hPa
Weather condition
n/a

Runways

Designator Length Width Surface Rops
10/28 2050 45 ASP Yes/Yes

Airport map

Aerial View

SKYbrary Partners:

Safety knowledge contributed by: